sensor_id;sensor_type;location;lat;lon;timestamp;P1;durP1;ratioP1;P2;durP2;ratioP2
24857;SDS011;12935;50.782;6.074;2022-07-19T00:01:39;28.53;;;16.27;;
24857;SDS011;12935;50.782;6.074;2022-07-19T00:04:05;21.40;;;16.10;;
24857;SDS011;12935;50.782;6.074;2022-07-19T00:06:30;32.20;;;15.93;;
24857;SDS011;12935;50.782;6.074;2022-07-19T00:08:56;21.17;;;16.43;;
24857;SDS011;12935;50.782;6.074;2022-07-19T00:11:22;16.93;;;14.20;;
24857;SDS011;12935;50.782;6.074;2022-07-19T00:13:47;21.33;;;14.37;;
24857;SDS011;12935;50.782;6.074;2022-07-19T00:16:12;29.23;;;15.67;;
24857;SDS011;12935;50.782;6.074;2022-07-19T00:18:38;20.30;;;14.70;;
24857;SDS011;12935;50.782;6.074;2022-07-19T00:21:03;24.20;;;14.60;;
24857;SDS011;12935;50.782;6.074;2022-07-19T00:23:28;14.63;;;13.17;;
24857;SDS011;12935;50.782;6.074;2022-07-19T00:25:54;29.97;;;13.87;;
24857;SDS011;12935;50.782;6.074;2022-07-19T00:28:19;27.60;;;15.47;;
24857;SDS011;12935;50.782;6.074;2022-07-19T00:30:44;22.73;;;14.63;;
24857;SDS011;12935;50.782;6.074;2022-07-19T00:33:09;26.30;;;15.50;;
24857;SDS011;12935;50.782;6.074;2022-07-19T00:35:38;28.00;;;16.10;;
24857;SDS011;12935;50.782;6.074;2022-07-19T00:38:07;16.87;;;14.73;;
24857;SDS011;12935;50.782;6.074;2022-07-19T00:40:34;17.03;;;13.30;;
24857;SDS011;12935;50.782;6.074;2022-07-19T00:42:59;15.73;;;13.90;;
24857;SDS011;12935;50.782;6.074;2022-07-19T00:45:25;19.43;;;16.00;;
24857;SDS011;12935;50.782;6.074;2022-07-19T00:47:50;26.53;;;16.17;;
24857;SDS011;12935;50.782;6.074;2022-07-19T00:50:15;31.57;;;15.60;;
24857;SDS011;12935;50.782;6.074;2022-07-19T00:52:43;18.87;;;14.50;;
24857;SDS011;12935;50.782;6.074;2022-07-19T00:55:12;27.60;;;14.80;;
24857;SDS011;12935;50.782;6.074;2022-07-19T00:57:37;24.50;;;14.70;;
24857;SDS011;12935;50.782;6.074;2022-07-19T01:00:03;14.80;;;12.73;;
24857;SDS011;12935;50.782;6.074;2022-07-19T01:02:30;25.87;;;14.20;;
24857;SDS011;12935;50.782;6.074;2022-07-19T01:04:56;18.00;;;13.10;;
24857;SDS011;12935;50.782;6.074;2022-07-19T01:07:22;28.27;;;15.40;;
24857;SDS011;12935;50.782;6.074;2022-07-19T01:09:47;25.83;;;14.60;;
24857;SDS011;12935;50.782;6.074;2022-07-19T01:12:13;25.37;;;14.93;;
24857;SDS011;12935;50.782;6.074;2022-07-19T01:14:39;26.50;;;14.77;;
24857;SDS011;12935;50.782;6.074;2022-07-19T01:17:05;15.67;;;13.57;;
24857;SDS011;12935;50.782;6.074;2022-07-19T01:19:30;21.43;;;14.67;;
24857;SDS011;12935;50.782;6.074;2022-07-19T01:21:55;23.93;;;14.17;;
24857;SDS011;12935;50.782;6.074;2022-07-19T01:24:21;26.00;;;14.93;;
24857;SDS011;12935;50.782;6.074;2022-07-19T01:26:46;27.43;;;14.90;;
24857;SDS011;12935;50.782;6.074;2022-07-19T01:29:15;31.60;;;14.87;;
24857;SDS011;12935;50.782;6.074;2022-07-19T01:31:41;15.43;;;11.83;;
24857;SDS011;12935;50.782;6.074;2022-07-19T01:34:06;14.70;;;13.20;;
24857;SDS011;12935;50.782;6.074;2022-07-19T01:36:31;27.27;;;15.07;;
24857;SDS011;12935;50.782;6.074;2022-07-19T01:38:57;20.97;;;13.80;;
24857;SDS011;12935;50.782;6.074;2022-07-19T01:41:22;16.73;;;12.77;;
24857;SDS011;12935;50.782;6.074;2022-07-19T01:43:47;28.77;;;14.60;;
24857;SDS011;12935;50.782;6.074;2022-07-19T01:46:13;25.27;;;14.40;;
24857;SDS011;12935;50.782;6.074;2022-07-19T01:48:38;30.67;;;15.40;;
24857;SDS011;12935;50.782;6.074;2022-07-19T01:51:04;19.73;;;13.47;;
24857;SDS011;12935;50.782;6.074;2022-07-19T01:53:30;18.40;;;13.60;;
24857;SDS011;12935;50.782;6.074;2022-07-19T01:55:55;29.20;;;14.00;;
24857;SDS011;12935;50.782;6.074;2022-07-19T01:58:21;21.37;;;15.07;;
24857;SDS011;12935;50.782;6.074;2022-07-19T02:00:46;25.20;;;14.27;;
24857;SDS011;12935;50.782;6.074;2022-07-19T02:03:11;20.23;;;13.37;;
24857;SDS011;12935;50.782;6.074;2022-07-19T02:05:37;22.73;;;13.97;;
24857;SDS011;12935;50.782;6.074;2022-07-19T02:08:02;18.23;;;13.73;;
24857;SDS011;12935;50.782;6.074;2022-07-19T02:10:28;22.77;;;13.33;;
24857;SDS011;12935;50.782;6.074;2022-07-19T02:12:53;18.27;;;12.67;;
24857;SDS011;12935;50.782;6.074;2022-07-19T02:15:19;26.20;;;14.50;;
24857;SDS011;12935;50.782;6.074;2022-07-19T02:17:44;20.90;;;13.60;;
24857;SDS011;12935;50.782;6.074;2022-07-19T02:20:10;21.20;;;13.80;;
24857;SDS011;12935;50.782;6.074;2022-07-19T02:22:35;32.43;;;15.23;;
24857;SDS011;12935;50.782;6.074;2022-07-19T02:25:00;40.23;;;15.37;;
24857;SDS011;12935;50.782;6.074;2022-07-19T02:27:26;17.80;;;13.90;;
24857;SDS011;12935;50.782;6.074;2022-07-19T02:29:53;22.30;;;12.77;;
24857;SDS011;12935;50.782;6.074;2022-07-19T02:32:19;38.07;;;15.17;;
24857;SDS011;12935;50.782;6.074;2022-07-19T02:34:44;18.20;;;13.10;;
24857;SDS011;12935;50.782;6.074;2022-07-19T02:37:09;23.30;;;13.47;;
24857;SDS011;12935;50.782;6.074;2022-07-19T02:39:35;28.53;;;13.70;;
24857;SDS011;12935;50.782;6.074;2022-07-19T02:42:00;25.87;;;14.03;;
24857;SDS011;12935;50.782;6.074;2022-07-19T02:44:25;15.73;;;13.03;;
24857;SDS011;12935;50.782;6.074;2022-07-19T02:46:51;35.33;;;13.80;;
24857;SDS011;12935;50.782;6.074;2022-07-19T02:49:16;19.20;;;12.90;;
24857;SDS011;12935;50.782;6.074;2022-07-19T02:51:42;21.43;;;12.87;;
24857;SDS011;12935;50.782;6.074;2022-07-19T02:54:07;14.33;;;12.80;;
24857;SDS011;12935;50.782;6.074;2022-07-19T02:56:32;18.63;;;13.40;;
24857;SDS011;12935;50.782;6.074;2022-07-19T02:58:58;20.17;;;12.10;;
24857;SDS011;12935;50.782;6.074;2022-07-19T03:01:23;20.13;;;13.57;;
24857;SDS011;12935;50.782;6.074;2022-07-19T03:03:48;17.70;;;12.80;;
24857;SDS011;12935;50.782;6.074;2022-07-19T03:06:15;26.13;;;14.53;;
24857;SDS011;12935;50.782;6.074;2022-07-19T03:08:42;19.30;;;12.60;;
24857;SDS011;12935;50.782;6.074;2022-07-19T03:11:07;22.17;;;12.93;;
24857;SDS011;12935;50.782;6.074;2022-07-19T03:13:33;21.27;;;12.60;;
24857;SDS011;12935;50.782;6.074;2022-07-19T03:15:58;13.10;;;11.77;;
24857;SDS011;12935;50.782;6.074;2022-07-19T03:18:24;19.37;;;13.10;;
24857;SDS011;12935;50.782;6.074;2022-07-19T03:20:49;27.07;;;13.67;;
24857;SDS011;12935;50.782;6.074;2022-07-19T03:23:14;30.40;;;14.40;;
24857;SDS011;12935;50.782;6.074;2022-07-19T03:25:39;13.80;;;12.27;;
24857;SDS011;12935;50.782;6.074;2022-07-19T03:28:05;14.30;;;11.67;;
24857;SDS011;12935;50.782;6.074;2022-07-19T03:30:30;20.57;;;14.10;;
24857;SDS011;12935;50.782;6.074;2022-07-19T03:32:56;18.80;;;13.00;;
24857;SDS011;12935;50.782;6.074;2022-07-19T03:35:22;22.77;;;12.50;;
24857;SDS011;12935;50.782;6.074;2022-07-19T03:37:48;28.37;;;13.63;;
24857;SDS011;12935;50.782;6.074;2022-07-19T03:40:13;24.80;;;13.27;;
24857;SDS011;12935;50.782;6.074;2022-07-19T03:42:38;22.00;;;12.57;;
24857;SDS011;12935;50.782;6.074;2022-07-19T03:45:04;30.17;;;12.83;;
24857;SDS011;12935;50.782;6.074;2022-07-19T03:47:29;24.47;;;13.63;;
24857;SDS011;12935;50.782;6.074;2022-07-19T03:49:55;20.13;;;12.37;;
24857;SDS011;12935;50.782;6.074;2022-07-19T03:52:21;57.10;;;16.27;;
24857;SDS011;12935;50.782;6.074;2022-07-19T03:54:47;23.47;;;14.20;;
24857;SDS011;12935;50.782;6.074;2022-07-19T03:57:12;21.70;;;12.90;;
24857;SDS011;12935;50.782;6.074;2022-07-19T03:59:37;32.73;;;12.93;;
24857;SDS011;12935;50.782;6.074;2022-07-19T04:02:02;20.23;;;13.10;;
24857;SDS011;12935;50.782;6.074;2022-07-19T04:04:28;18.47;;;12.13;;
24857;SDS011;12935;50.782;6.074;2022-07-19T04:06:53;28.60;;;13.67;;
24857;SDS011;12935;50.782;6.074;2022-07-19T04:09:19;27.73;;;14.50;;
24857;SDS011;12935;50.782;6.074;2022-07-19T04:11:44;17.43;;;11.03;;
24857;SDS011;12935;50.782;6.074;2022-07-19T04:14:09;31.53;;;12.90;;
24857;SDS011;12935;50.782;6.074;2022-07-19T04:16:34;28.83;;;13.80;;
24857;SDS011;12935;50.782;6.074;2022-07-19T04:19:00;21.00;;;12.40;;
24857;SDS011;12935;50.782;6.074;2022-07-19T04:21:25;31.27;;;14.10;;
24857;SDS011;12935;50.782;6.074;2022-07-19T04:23:50;25.87;;;13.13;;
24857;SDS011;12935;50.782;6.074;2022-07-19T04:26:15;18.30;;;12.00;;
24857;SDS011;12935;50.782;6.074;2022-07-19T04:28:41;20.90;;;13.50;;
24857;SDS011;12935;50.782;6.074;2022-07-19T04:31:06;29.43;;;13.40;;
24857;SDS011;12935;50.782;6.074;2022-07-19T04:33:31;24.20;;;14.37;;
24857;SDS011;12935;50.782;6.074;2022-07-19T04:35:57;12.93;;;11.60;;
24857;SDS011;12935;50.782;6.074;2022-07-19T04:38:22;23.47;;;13.20;;
24857;SDS011;12935;50.782;6.074;2022-07-19T04:40:48;19.23;;;12.87;;
24857;SDS011;12935;50.782;6.074;2022-07-19T04:43:13;13.60;;;12.30;;
24857;SDS011;12935;50.782;6.074;2022-07-19T04:45:41;21.57;;;13.40;;
24857;SDS011;12935;50.782;6.074;2022-07-19T04:48:07;21.60;;;13.10;;
24857;SDS011;12935;50.782;6.074;2022-07-19T04:50:32;28.43;;;15.07;;
24857;SDS011;12935;50.782;6.074;2022-07-19T04:52:57;29.13;;;14.97;;
24857;SDS011;12935;50.782;6.074;2022-07-19T04:55:23;16.03;;;12.97;;
24857;SDS011;12935;50.782;6.074;2022-07-19T04:57:48;26.33;;;14.33;;
24857;SDS011;12935;50.782;6.074;2022-07-19T05:00:14;21.93;;;14.70;;
24857;SDS011;12935;50.782;6.074;2022-07-19T05:02:39;22.33;;;13.80;;
24857;SDS011;12935;50.782;6.074;2022-07-19T05:05:04;24.70;;;14.80;;
24857;SDS011;12935;50.782;6.074;2022-07-19T05:07:30;30.70;;;15.60;;
24857;SDS011;12935;50.782;6.074;2022-07-19T05:09:56;25.00;;;14.43;;
24857;SDS011;12935;50.782;6.074;2022-07-19T05:12:21;41.07;;;16.10;;
24857;SDS011;12935;50.782;6.074;2022-07-19T05:14:47;18.87;;;13.77;;
24857;SDS011;12935;50.782;6.074;2022-07-19T05:17:12;23.00;;;14.70;;
24857;SDS011;12935;50.782;6.074;2022-07-19T05:19:38;26.57;;;16.00;;
24857;SDS011;12935;50.782;6.074;2022-07-19T05:22:03;35.50;;;16.23;;
24857;SDS011;12935;50.782;6.074;2022-07-19T05:24:28;19.30;;;14.10;;
24857;SDS011;12935;50.782;6.074;2022-07-19T05:26:54;20.93;;;14.20;;
24857;SDS011;12935;50.782;6.074;2022-07-19T05:29:19;18.07;;;14.07;;
24857;SDS011;12935;50.782;6.074;2022-07-19T05:31:45;27.30;;;15.30;;
24857;SDS011;12935;50.782;6.074;2022-07-19T05:34:10;20.63;;;14.63;;
24857;SDS011;12935;50.782;6.074;2022-07-19T05:36:36;24.63;;;15.33;;
24857;SDS011;12935;50.782;6.074;2022-07-19T05:39:01;15.87;;;13.63;;
24857;SDS011;12935;50.782;6.074;2022-07-19T05:41:27;17.20;;;14.30;;
24857;SDS011;12935;50.782;6.074;2022-07-19T05:43:52;32.10;;;16.20;;
24857;SDS011;12935;50.782;6.074;2022-07-19T05:46:18;27.17;;;15.80;;
24857;SDS011;12935;50.782;6.074;2022-07-19T05:48:43;24.63;;;15.33;;
24857;SDS011;12935;50.782;6.074;2022-07-19T05:51:08;30.43;;;15.10;;
24857;SDS011;12935;50.782;6.074;2022-07-19T05:53:35;16.77;;;14.93;;
24857;SDS011;12935;50.782;6.074;2022-07-19T05:56:01;16.17;;;14.47;;
24857;SDS011;12935;50.782;6.074;2022-07-19T05:58:26;17.33;;;14.53;;
24857;SDS011;12935;50.782;6.074;2022-07-19T06:00:52;30.50;;;15.23;;
24857;SDS011;12935;50.782;6.074;2022-07-19T06:03:36;25.77;;;16.40;;
24857;SDS011;12935;50.782;6.074;2022-07-19T06:06:01;25.53;;;15.47;;
24857;SDS011;12935;50.782;6.074;2022-07-19T06:08:27;25.20;;;16.10;;
24857;SDS011;12935;50.782;6.074;2022-07-19T06:10:52;33.37;;;16.23;;
24857;SDS011;12935;50.782;6.074;2022-07-19T06:13:18;20.77;;;15.70;;
24857;SDS011;12935;50.782;6.074;2022-07-19T06:15:43;21.17;;;16.03;;
24857;SDS011;12935;50.782;6.074;2022-07-19T06:18:09;21.80;;;15.80;;
24857;SDS011;12935;50.782;6.074;2022-07-19T06:20:34;29.00;;;17.13;;
24857;SDS011;12935;50.782;6.074;2022-07-19T06:22:59;24.80;;;15.60;;
24857;SDS011;12935;50.782;6.074;2022-07-19T06:25:25;22.07;;;15.50;;
24857;SDS011;12935;50.782;6.074;2022-07-19T06:27:50;23.13;;;16.80;;
24857;SDS011;12935;50.782;6.074;2022-07-19T06:30:15;36.17;;;18.30;;
24857;SDS011;12935;50.782;6.074;2022-07-19T06:32:40;23.20;;;16.87;;
24857;SDS011;12935;50.782;6.074;2022-07-19T06:35:06;21.63;;;16.50;;
24857;SDS011;12935;50.782;6.074;2022-07-19T06:37:32;24.23;;;16.77;;
24857;SDS011;12935;50.782;6.074;2022-07-19T06:39:57;29.03;;;17.73;;
24857;SDS011;12935;50.782;6.074;2022-07-19T06:42:22;45.10;;;18.40;;
24857;SDS011;12935;50.782;6.074;2022-07-19T06:44:48;25.90;;;17.67;;
24857;SDS011;12935;50.782;6.074;2022-07-19T06:47:13;21.33;;;16.53;;
24857;SDS011;12935;50.782;6.074;2022-07-19T06:49:38;30.77;;;16.70;;
24857;SDS011;12935;50.782;6.074;2022-07-19T06:52:04;27.57;;;16.73;;
24857;SDS011;12935;50.782;6.074;2022-07-19T06:54:29;29.47;;;16.37;;
24857;SDS011;12935;50.782;6.074;2022-07-19T06:56:54;28.00;;;17.47;;
24857;SDS011;12935;50.782;6.074;2022-07-19T06:59:20;21.63;;;15.50;;
24857;SDS011;12935;50.782;6.074;2022-07-19T07:01:45;18.10;;;15.80;;
24857;SDS011;12935;50.782;6.074;2022-07-19T07:04:10;23.00;;;16.73;;
24857;SDS011;12935;50.782;6.074;2022-07-19T07:06:36;20.27;;;16.13;;
24857;SDS011;12935;50.782;6.074;2022-07-19T07:09:02;23.17;;;16.43;;
24857;SDS011;12935;50.782;6.074;2022-07-19T07:11:28;28.90;;;18.03;;
24857;SDS011;12935;50.782;6.074;2022-07-19T07:13:54;34.63;;;18.30;;
24857;SDS011;12935;50.782;6.074;2022-07-19T07:16:19;31.13;;;19.43;;
24857;SDS011;12935;50.782;6.074;2022-07-19T07:18:44;27.90;;;18.40;;
24857;SDS011;12935;50.782;6.074;2022-07-19T07:21:10;32.97;;;19.10;;
24857;SDS011;12935;50.782;6.074;2022-07-19T07:23:35;25.00;;;17.50;;
24857;SDS011;12935;50.782;6.074;2022-07-19T07:26:00;23.87;;;18.40;;
24857;SDS011;12935;50.782;6.074;2022-07-19T07:28:26;27.33;;;18.87;;
24857;SDS011;12935;50.782;6.074;2022-07-19T07:30:51;20.60;;;18.50;;
24857;SDS011;12935;50.782;6.074;2022-07-19T07:33:16;23.33;;;18.43;;
24857;SDS011;12935;50.782;6.074;2022-07-19T07:35:42;19.57;;;17.70;;
24857;SDS011;12935;50.782;6.074;2022-07-19T07:38:07;19.00;;;16.93;;
24857;SDS011;12935;50.782;6.074;2022-07-19T07:40:32;30.63;;;18.77;;
24857;SDS011;12935;50.782;6.074;2022-07-19T07:42:58;20.07;;;17.80;;
24857;SDS011;12935;50.782;6.074;2022-07-19T07:45:23;22.87;;;18.33;;
24857;SDS011;12935;50.782;6.074;2022-07-19T07:47:48;47.83;;;19.10;;
24857;SDS011;12935;50.782;6.074;2022-07-19T07:50:14;30.07;;;19.30;;
24857;SDS011;12935;50.782;6.074;2022-07-19T07:52:39;19.90;;;17.23;;
24857;SDS011;12935;50.782;6.074;2022-07-19T07:55:05;30.43;;;19.37;;
24857;SDS011;12935;50.782;6.074;2022-07-19T07:57:30;23.10;;;18.43;;
24857;SDS011;12935;50.782;6.074;2022-07-19T07:59:56;22.17;;;19.07;;
24857;SDS011;12935;50.782;6.074;2022-07-19T08:02:21;37.03;;;21.10;;
24857;SDS011;12935;50.782;6.074;2022-07-19T08:04:47;20.93;;;18.10;;
24857;SDS011;12935;50.782;6.074;2022-07-19T08:07:12;24.57;;;17.77;;
24857;SDS011;12935;50.782;6.074;2022-07-19T08:09:38;22.90;;;18.30;;
24857;SDS011;12935;50.782;6.074;2022-07-19T08:12:03;25.27;;;17.97;;
24857;SDS011;12935;50.782;6.074;2022-07-19T08:14:28;27.50;;;19.47;;
24857;SDS011;12935;50.782;6.074;2022-07-19T08:16:54;24.47;;;17.97;;
24857;SDS011;12935;50.782;6.074;2022-07-19T08:19:19;23.57;;;17.93;;
24857;SDS011;12935;50.782;6.074;2022-07-19T08:21:44;21.50;;;17.70;;
24857;SDS011;12935;50.782;6.074;2022-07-19T08:24:09;30.97;;;18.90;;
24857;SDS011;12935;50.782;6.074;2022-07-19T08:26:35;17.90;;;16.27;;
24857;SDS011;12935;50.782;6.074;2022-07-19T08:29:00;17.87;;;16.17;;
24857;SDS011;12935;50.782;6.074;2022-07-19T08:31:25;21.53;;;18.27;;
24857;SDS011;12935;50.782;6.074;2022-07-19T08:33:51;25.93;;;17.93;;
24857;SDS011;12935;50.782;6.074;2022-07-19T08:36:16;29.53;;;18.70;;
24857;SDS011;12935;50.782;6.074;2022-07-19T08:38:41;21.27;;;16.23;;
24857;SDS011;12935;50.782;6.074;2022-07-19T08:41:07;27.17;;;18.07;;
24857;SDS011;12935;50.782;6.074;2022-07-19T08:43:33;19.33;;;17.50;;
24857;SDS011;12935;50.782;6.074;2022-07-19T08:45:59;19.70;;;17.73;;
24857;SDS011;12935;50.782;6.074;2022-07-19T08:48:32;24.37;;;18.50;;
24857;SDS011;12935;50.782;6.074;2022-07-19T08:50:59;18.53;;;16.67;;
24857;SDS011;12935;50.782;6.074;2022-07-19T08:53:28;19.07;;;17.20;;
24857;SDS011;12935;50.782;6.074;2022-07-19T08:55:55;19.10;;;17.13;;
24857;SDS011;12935;50.782;6.074;2022-07-19T08:58:21;18.40;;;15.13;;
24857;SDS011;12935;50.782;6.074;2022-07-19T09:00:46;26.30;;;18.17;;
24857;SDS011;12935;50.782;6.074;2022-07-19T09:03:11;52.03;;;16.30;;
24857;SDS011;12935;50.782;6.074;2022-07-19T09:05:37;18.10;;;16.30;;
24857;SDS011;12935;50.782;6.074;2022-07-19T09:08:10;18.17;;;16.40;;
24857;SDS011;12935;50.782;6.074;2022-07-19T09:10:38;23.00;;;18.50;;
24857;SDS011;12935;50.782;6.074;2022-07-19T09:20:49;18.23;;;15.90;;
24857;SDS011;12935;50.782;6.074;2022-07-19T09:23:16;18.10;;;16.63;;
24857;SDS011;12935;50.782;6.074;2022-07-19T09:25:43;18.50;;;16.87;;
24857;SDS011;12935;50.782;6.074;2022-07-19T09:28:13;20.10;;;18.00;;
24857;SDS011;12935;50.782;6.074;2022-07-19T09:30:46;25.23;;;16.00;;
24857;SDS011;12935;50.782;6.074;2022-07-19T09:33:15;18.87;;;16.90;;
24857;SDS011;12935;50.782;6.074;2022-07-19T09:35:47;21.07;;;16.70;;
24857;SDS011;12935;50.782;6.074;2022-07-19T09:38:14;18.93;;;17.03;;
24857;SDS011;12935;50.782;6.074;2022-07-19T09:40:41;23.63;;;16.50;;
24857;SDS011;12935;50.782;6.074;2022-07-19T09:43:06;21.30;;;16.47;;
24857;SDS011;12935;50.782;6.074;2022-07-19T09:45:32;25.27;;;17.47;;
24857;SDS011;12935;50.782;6.074;2022-07-19T09:47:58;27.53;;;17.37;;
24857;SDS011;12935;50.782;6.074;2022-07-19T09:50:25;22.30;;;16.00;;
24857;SDS011;12935;50.782;6.074;2022-07-19T09:52:51;17.97;;;16.03;;
24857;SDS011;12935;50.782;6.074;2022-07-19T09:55:18;22.57;;;17.37;;
24857;SDS011;12935;50.782;6.074;2022-07-19T09:57:44;20.77;;;16.73;;
24857;SDS011;12935;50.782;6.074;2022-07-19T10:00:11;23.43;;;16.27;;
24857;SDS011;12935;50.782;6.074;2022-07-19T10:02:40;17.57;;;15.63;;
24857;SDS011;12935;50.782;6.074;2022-07-19T10:05:07;22.43;;;16.13;;
24857;SDS011;12935;50.782;6.074;2022-07-19T10:07:34;25.27;;;15.77;;
24857;SDS011;12935;50.782;6.074;2022-07-19T10:10:01;21.40;;;15.87;;
24857;SDS011;12935;50.782;6.074;2022-07-19T10:12:28;29.37;;;18.60;;
24857;SDS011;12935;50.782;6.074;2022-07-19T10:14:54;26.13;;;16.70;;
24857;SDS011;12935;50.782;6.074;2022-07-19T10:20:11;21.10;;;16.00;;
24857;SDS011;12935;50.782;6.074;2022-07-19T10:22:41;17.80;;;15.27;;
24857;SDS011;12935;50.782;6.074;2022-07-19T10:25:10;18.00;;;15.63;;
24857;SDS011;12935;50.782;6.074;2022-07-19T10:27:45;24.93;;;15.80;;
24857;SDS011;12935;50.782;6.074;2022-07-19T10:30:19;20.67;;;15.90;;
24857;SDS011;12935;50.782;6.074;2022-07-19T10:32:47;16.83;;;14.97;;
24857;SDS011;12935;50.782;6.074;2022-07-19T10:37:41;20.20;;;14.97;;
24857;SDS011;12935;50.782;6.074;2022-07-19T10:40:07;19.00;;;14.60;;
24857;SDS011;12935;50.782;6.074;2022-07-19T10:42:33;22.70;;;16.00;;
24857;SDS011;12935;50.782;6.074;2022-07-19T10:52:37;25.97;;;15.43;;
24857;SDS011;12935;50.782;6.074;2022-07-19T10:57:49;20.90;;;15.27;;
24857;SDS011;12935;50.782;6.074;2022-07-19T11:02:42;18.70;;;14.70;;
24857;SDS011;12935;50.782;6.074;2022-07-19T11:05:07;20.07;;;15.20;;
24857;SDS011;12935;50.782;6.074;2022-07-19T11:07:33;15.90;;;14.23;;
24857;SDS011;12935;50.782;6.074;2022-07-19T11:09:58;16.70;;;15.00;;
24857;SDS011;12935;50.782;6.074;2022-07-19T11:12:26;37.27;;;14.90;;
24857;SDS011;12935;50.782;6.074;2022-07-19T11:14:53;21.47;;;14.40;;
24857;SDS011;12935;50.782;6.074;2022-07-19T11:17:19;17.83;;;14.93;;
24857;SDS011;12935;50.782;6.074;2022-07-19T11:22:23;32.47;;;17.00;;
24857;SDS011;12935;50.782;6.074;2022-07-19T11:24:48;23.63;;;14.33;;
24857;SDS011;12935;50.782;6.074;2022-07-19T11:27:13;34.27;;;16.80;;
24857;SDS011;12935;50.782;6.074;2022-07-19T11:29:56;18.20;;;13.30;;
24857;SDS011;12935;50.782;6.074;2022-07-19T11:32:23;30.17;;;15.00;;
24857;SDS011;12935;50.782;6.074;2022-07-19T11:34:55;16.93;;;14.03;;
24857;SDS011;12935;50.782;6.074;2022-07-19T11:37:26;23.97;;;14.60;;
24857;SDS011;12935;50.782;6.074;2022-07-19T11:39:55;18.77;;;14.20;;
24857;SDS011;12935;50.782;6.074;2022-07-19T11:42:32;37.33;;;17.20;;
24857;SDS011;12935;50.782;6.074;2022-07-19T11:44:58;25.67;;;15.20;;
24857;SDS011;12935;50.782;6.074;2022-07-19T11:47:24;17.43;;;14.47;;
24857;SDS011;12935;50.782;6.074;2022-07-19T11:49:50;21.07;;;14.70;;
24857;SDS011;12935;50.782;6.074;2022-07-19T11:52:15;47.50;;;18.30;;
24857;SDS011;12935;50.782;6.074;2022-07-19T11:54:41;15.17;;;13.77;;
24857;SDS011;12935;50.782;6.074;2022-07-19T11:57:22;15.77;;;13.67;;
24857;SDS011;12935;50.782;6.074;2022-07-19T11:59:48;15.20;;;13.60;;
24857;SDS011;12935;50.782;6.074;2022-07-19T12:02:14;31.10;;;15.47;;
24857;SDS011;12935;50.782;6.074;2022-07-19T12:04:39;17.10;;;13.43;;
24857;SDS011;12935;50.782;6.074;2022-07-19T12:07:04;15.27;;;13.37;;
24857;SDS011;12935;50.782;6.074;2022-07-19T12:09:30;22.00;;;13.33;;
24857;SDS011;12935;50.782;6.074;2022-07-19T12:11:59;17.37;;;12.80;;
24857;SDS011;12935;50.782;6.074;2022-07-19T12:14:36;26.67;;;14.20;;
24857;SDS011;12935;50.782;6.074;2022-07-19T12:19:44;14.43;;;13.27;;
24857;SDS011;12935;50.782;6.074;2022-07-19T12:25:04;23.57;;;14.53;;
24857;SDS011;12935;50.782;6.074;2022-07-19T12:27:31;21.13;;;12.57;;
24857;SDS011;12935;50.782;6.074;2022-07-19T12:29:57;17.83;;;14.03;;
24857;SDS011;12935;50.782;6.074;2022-07-19T12:32:31;44.30;;;15.87;;
24857;SDS011;12935;50.782;6.074;2022-07-19T12:35:00;29.37;;;13.63;;
24857;SDS011;12935;50.782;6.074;2022-07-19T12:39:59;17.23;;;13.90;;
24857;SDS011;12935;50.782;6.074;2022-07-19T12:42:36;31.40;;;14.90;;
24857;SDS011;12935;50.782;6.074;2022-07-19T12:45:05;15.53;;;12.87;;
24857;SDS011;12935;50.782;6.074;2022-07-19T12:47:31;17.23;;;12.23;;
24857;SDS011;12935;50.782;6.074;2022-07-19T12:49:57;25.43;;;13.13;;
24857;SDS011;12935;50.782;6.074;2022-07-19T12:52:22;30.40;;;14.93;;
24857;SDS011;12935;50.782;6.074;2022-07-19T12:54:47;13.17;;;11.80;;
24857;SDS011;12935;50.782;6.074;2022-07-19T12:57:13;16.47;;;13.40;;
24857;SDS011;12935;50.782;6.074;2022-07-19T12:59:38;17.40;;;13.30;;
24857;SDS011;12935;50.782;6.074;2022-07-19T13:02:03;15.20;;;13.63;;
24857;SDS011;12935;50.782;6.074;2022-07-19T13:04:29;20.70;;;14.00;;
24857;SDS011;12935;50.782;6.074;2022-07-19T13:06:54;18.07;;;13.30;;
24857;SDS011;12935;50.782;6.074;2022-07-19T13:09:19;14.73;;;11.90;;
24857;SDS011;12935;50.782;6.074;2022-07-19T13:11:45;13.60;;;12.10;;
24857;SDS011;12935;50.782;6.074;2022-07-19T13:14:10;14.33;;;12.47;;
24857;SDS011;12935;50.782;6.074;2022-07-19T13:16:36;21.27;;;12.70;;
24857;SDS011;12935;50.782;6.074;2022-07-19T13:19:02;13.70;;;12.17;;
24857;SDS011;12935;50.782;6.074;2022-07-19T13:21:27;20.43;;;13.20;;
24857;SDS011;12935;50.782;6.074;2022-07-19T13:23:52;18.03;;;13.20;;
24857;SDS011;12935;50.782;6.074;2022-07-19T13:26:18;34.03;;;14.63;;
24857;SDS011;12935;50.782;6.074;2022-07-19T13:28:43;13.83;;;11.80;;
24857;SDS011;12935;50.782;6.074;2022-07-19T13:31:08;19.20;;;12.53;;
24857;SDS011;12935;50.782;6.074;2022-07-19T13:33:34;11.80;;;10.60;;
24857;SDS011;12935;50.782;6.074;2022-07-19T13:35:59;13.23;;;11.27;;
24857;SDS011;12935;50.782;6.074;2022-07-19T13:38:25;12.33;;;11.07;;
24857;SDS011;12935;50.782;6.074;2022-07-19T13:40:50;13.67;;;11.40;;
24857;SDS011;12935;50.782;6.074;2022-07-19T13:43:15;21.20;;;11.83;;
24857;SDS011;12935;50.782;6.074;2022-07-19T13:45:41;11.47;;;10.40;;
24857;SDS011;12935;50.782;6.074;2022-07-19T13:48:06;10.53;;;9.83;;
24857;SDS011;12935;50.782;6.074;2022-07-19T13:50:31;17.20;;;11.43;;
24857;SDS011;12935;50.782;6.074;2022-07-19T13:52:57;10.90;;;9.80;;
24857;SDS011;12935;50.782;6.074;2022-07-19T13:55:23;10.20;;;9.40;;
24857;SDS011;12935;50.782;6.074;2022-07-19T13:57:48;11.57;;;9.83;;
24857;SDS011;12935;50.782;6.074;2022-07-19T14:00:14;13.17;;;9.43;;
24857;SDS011;12935;50.782;6.074;2022-07-19T14:02:42;10.90;;;9.67;;
24857;SDS011;12935;50.782;6.074;2022-07-19T14:05:08;11.30;;;9.23;;
24857;SDS011;12935;50.782;6.074;2022-07-19T14:07:34;9.77;;;8.80;;
24857;SDS011;12935;50.782;6.074;2022-07-19T14:09:59;16.07;;;11.10;;
24857;SDS011;12935;50.782;6.074;2022-07-19T14:12:24;19.90;;;11.87;;
24857;SDS011;12935;50.782;6.074;2022-07-19T14:14:50;14.43;;;11.23;;
24857;SDS011;12935;50.782;6.074;2022-07-19T14:17:15;13.57;;;12.20;;
24857;SDS011;12935;50.782;6.074;2022-07-19T14:19:42;17.07;;;11.93;;
24857;SDS011;12935;50.782;6.074;2022-07-19T14:22:08;14.90;;;13.03;;
24857;SDS011;12935;50.782;6.074;2022-07-19T14:24:33;14.93;;;13.27;;
24857;SDS011;12935;50.782;6.074;2022-07-19T14:26:58;14.73;;;13.37;;
24857;SDS011;12935;50.782;6.074;2022-07-19T14:29:24;14.80;;;13.43;;
24857;SDS011;12935;50.782;6.074;2022-07-19T14:31:49;24.80;;;15.17;;
24857;SDS011;12935;50.782;6.074;2022-07-19T14:34:14;17.63;;;15.80;;
24857;SDS011;12935;50.782;6.074;2022-07-19T14:36:40;17.53;;;15.83;;
24857;SDS011;12935;50.782;6.074;2022-07-19T14:39:05;16.37;;;14.83;;
24857;SDS011;12935;50.782;6.074;2022-07-19T14:41:31;17.10;;;15.33;;
24857;SDS011;12935;50.782;6.074;2022-07-19T14:43:56;17.00;;;15.37;;
24857;SDS011;12935;50.782;6.074;2022-07-19T14:46:22;17.10;;;15.13;;
24857;SDS011;12935;50.782;6.074;2022-07-19T14:48:47;18.27;;;15.93;;
24857;SDS011;12935;50.782;6.074;2022-07-19T14:51:12;25.67;;;17.33;;